Terminal Aerodrome Forecast
Issued by NWS St Louis, MO

Home | Current Version | Previous Version | Text Only | Print | Product List | Glossary On
Versions: 1 2 3 4 5 6 7 8 9 10 11 12 13 14 15 16 17 18 19 20 21 22 23 24 25 26 27 28 29 30 31 32
000
FTUS43 KLSX 170433 AAB
TAFSTL
TAF AMD
KSTL 170433Z 1705/1806 21012G22KT 5SM SHRA BR BKN005
     FM170600 27015G25KT 5SM BR OVC015
     FM170800 26007KT 6SM BR OVC010
     FM172100 27009KT P6SM OVC015
     FM180300 29005KT P6SM BKN015=

USA.gov is the U.S. government's official web portal to all federal, state and local government web resources and services.